Time;durP1;ratioP1;P1;durP2;ratioP2;P2;SDS_P1;SDS_P2;PMS_P1;PMS_P2;Temp;Humidity;BMP_temperature;BMP_pressure;BME280_temperature;BME280_humidity;BME280_pressure;Samples;Min_cycle;Max_cycle;Signal;HPM_P1;HPM_P2
2021/03/27 00:00:34;;;;;;;1.45;1.35;;;9.10;99.90;;;;;;4848602;29;20221;-82
2021/03/27 00:03:20;;;;;;;1.60;1.30;;;9.00;99.90;;;;;;4878454;29;20626;-82
2021/03/27 00:05:58;;;;;;;1.90;0.90;;;8.90;99.90;;;;;;4855985;29;20611;-86
2021/03/27 00:08:52;;;;;;;1.35;1.25;;;8.90;99.90;;;;;;4858352;29;20584;-87
2021/03/27 00:11:35;;;;;;;1.08;0.98;;;8.70;99.90;;;;;;4854482;29;20188;-80
2021/03/27 00:14:06;;;;;;;2.97;1.10;;;8.50;99.90;;;;;;4845928;29;20231;-83
2021/03/27 00:16:57;;;;;;;1.08;0.98;;;8.30;99.90;;;;;;4876221;29;20263;-75
2021/03/27 00:19:37;;;;;;;1.70;1.40;;;8.40;99.90;;;;;;4861290;29;20240;-77
2021/03/27 00:22:37;;;;;;;1.90;0.95;;;8.30;99.90;;;;;;4860468;29;20254;-75
2021/03/27 00:25:30;;;;;;;1.38;0.80;;;8.30;99.90;;;;;;4831612;29;20720;-75
2021/03/27 00:28:19;;;;;;;1.60;1.05;;;8.30;99.90;;;;;;4864910;29;20218;-74
2021/03/27 00:30:51;;;;;;;1.52;1.25;;;8.40;99.90;;;;;;4849973;29;20190;-74
2021/03/27 00:33:21;;;;;;;1.40;1.30;;;8.40;99.90;;;;;;4869985;29;20269;-79
2021/03/27 00:36:01;;;;;;;1.75;1.65;;;8.50;99.90;;;;;;4861945;29;20213;-81
2021/03/27 00:38:48;;;;;;;2.00;1.20;;;8.50;99.90;;;;;;4866180;29;20223;-80
2021/03/27 00:41:22;;;;;;;1.40;1.30;;;8.40;99.90;;;;;;4844955;29;20222;-79
2021/03/27 00:43:56;;;;;;;1.83;1.10;;;8.20;99.90;;;;;;4864192;29;20226;-83
2021/03/27 00:46:24;;;;;;;1.10;1.00;;;8.20;99.90;;;;;;4859004;29;20239;-81
2021/03/27 00:49:03;;;;;;;1.20;1.10;;;8.10;99.90;;;;;;4874358;29;20244;-79
2021/03/27 00:51:37;;;;;;;1.58;1.10;;;8.00;99.90;;;;;;4868091;29;20194;-79
2021/03/27 00:54:25;;;;;;;0.95;0.85;;;8.00;99.90;;;;;;4862482;29;20659;-77
2021/03/27 00:56:59;;;;;;;0.98;0.88;;;7.90;99.90;;;;;;4843222;29;20235;-83
2021/03/27 00:59:33;;;;;;;1.15;1.05;;;7.90;99.90;;;;;;4849772;29;20305;-79
2021/03/27 01:02:15;;;;;;;1.83;1.13;;;7.90;99.90;;;;;;4854600;29;20218;-80
2021/03/27 01:05:19;;;;;;;3.08;1.30;;;7.90;99.90;;;;;;4868753;29;20746;-83
2021/03/27 01:08:26;;;;;;;1.90;1.45;;;7.90;99.90;;;;;;4848559;29;20215;-81
2021/03/27 01:11:28;;;;;;;1.30;1.15;;;7.80;99.90;;;;;;4845493;29;20283;-80
2021/03/27 01:13:59;;;;;;;4.20;1.00;;;7.90;99.90;;;;;;4863871;29;20290;-81
2021/03/27 01:16:33;;;;;;;3.10;1.30;;;7.80;99.90;;;;;;4845529;29;20301;-81
2021/03/27 01:19:05;;;;;;;2.30;1.20;;;7.80;99.90;;;;;;4837662;29;20214;-80
2021/03/27 01:21:38;;;;;;;1.83;0.85;;;7.70;99.90;;;;;;4874465;29;20711;-79
2021/03/27 01:24:10;;;;;;;3.83;1.25;;;7.70;99.90;;;;;;4847081;29;20314;-79
2021/03/27 01:26:57;;;;;;;1.05;0.70;;;7.70;99.90;;;;;;4856296;29;20214;-77
2021/03/27 01:29:33;;;;;;;1.60;1.17;;;7.60;99.90;;;;;;4879114;29;20254;-79
2021/03/27 01:32:27;;;;;;;1.75;1.40;;;7.60;99.90;;;;;;4865216;29;20234;-76
2021/03/27 01:35:15;;;;;;;3.47;1.25;;;7.50;99.90;;;;;;4872355;29;20227;-77
2021/03/27 01:38:22;;;;;;;3.55;1.23;;;7.50;99.90;;;;;;4859054;29;20200;-78
2021/03/27 01:41:20;;;;;;;3.25;1.40;;;7.50;99.90;;;;;;4850065;29;20239;-80
2021/03/27 01:44:03;;;;;;;3.08;1.20;;;7.50;99.90;;;;;;4849956;29;20224;-76
2021/03/27 01:47:05;;;;;;;3.45;1.48;;;7.50;99.90;;;;;;4851450;29;20728;-77
2021/03/27 01:49:45;;;;;;;1.92;1.30;;;7.50;99.90;;;;;;4862814;29;20218;-77
2021/03/27 01:52:30;;;;;;;2.47;1.80;;;7.50;99.90;;;;;;4877978;29;20186;-77
2021/03/27 01:55:14;;;;;;;4.03;1.90;;;7.50;99.90;;;;;;4866864;29;20287;-79
2021/03/27 01:58:02;;;;;;;2.92;1.70;;;7.50;99.90;;;;;;4847966;29;20191;-77
2021/03/27 02:00:34;;;;;;;3.97;1.85;;;7.50;99.90;;;;;;4855143;29;20676;-77
2021/03/27 02:03:23;;;;;;;5.45;1.92;;;7.40;99.90;;;;;;4855290;29;20227;-77
2021/03/27 02:05:57;;;;;;;3.15;1.50;;;7.40;99.90;;;;;;4880531;29;20206;-80
2021/03/27 02:08:35;;;;;;;2.33;1.67;;;7.40;99.90;;;;;;4863491;29;20773;-80
2021/03/27 02:11:23;;;;;;;2.60;1.67;;;7.30;99.90;;;;;;4879319;29;20194;-77
2021/03/27 02:14:28;;;;;;;3.65;1.50;;;7.30;99.90;;;;;;4864146;29;20309;-79
2021/03/27 02:17:03;;;;;;;3.42;1.70;;;7.30;99.90;;;;;;4858093;29;20229;-74
2021/03/27 02:20:06;;;;;;;2.25;1.60;;;7.30;99.90;;;;;;4881022;29;20249;-79
2021/03/27 02:23:18;;;;;;;1.65;1.50;;;7.30;99.90;;;;;;4855778;29;20247;-79
2021/03/27 02:25:53;;;;;;;1.77;1.65;;;7.30;99.90;;;;;;4846202;29;20222;-80
2021/03/27 02:28:58;;;;;;;2.70;1.60;;;7.30;99.90;;;;;;4848630;29;20226;-79
2021/03/27 02:31:30;;;;;;;2.60;1.90;;;7.30;99.90;;;;;;4848600;29;20205;-77
2021/03/27 02:33:59;;;;;;;4.72;1.98;;;7.30;99.90;;;;;;4881683;29;20242;-80
2021/03/27 02:37:02;;;;;;;6.40;3.38;;;7.30;99.90;;;;;;4869488;29;20222;-77
2021/03/27 02:39:38;;;;;;;4.18;1.63;;;7.30;99.90;;;;;;4802218;29;20254;-76
2021/03/27 02:42:23;;;;;;;2.15;1.73;;;7.30;99.90;;;;;;4859710;29;20295;-77
2021/03/27 02:44:53;;;;;;;5.20;1.55;;;7.30;99.90;;;;;;4851760;29;20218;-76
2021/03/27 02:47:47;;;;;;;2.13;1.92;;;7.20;99.90;;;;;;4881565;29;20637;-80
2021/03/27 02:50:33;;;;;;;4.53;1.60;;;7.20;99.90;;;;;;4850805;29;20607;-79
2021/03/27 02:53:14;;;;;;;4.50;2.00;;;7.20;99.90;;;;;;4873795;29;20701;-78
2021/03/27 02:55:46;;;;;;;2.75;1.77;;;7.20;99.90;;;;;;4847923;29;20715;-76
2021/03/27 02:58:21;;;;;;;8.48;1.90;;;7.10;99.90;;;;;;4866901;29;20237;-78
2021/03/27 03:00:50;;;;;;;5.28;1.45;;;7.10;99.90;;;;;;4868319;29;20211;-78
2021/03/27 03:03:55;;;;;;;3.10;1.50;;;7.00;99.90;;;;;;4846634;29;20646;-76
2021/03/27 03:06:28;;;;;;;4.60;1.65;;;7.00;99.90;;;;;;4818818;29;20716;-79
2021/03/27 03:09:10;;;;;;;4.47;2.20;;;7.00;99.90;;;;;;4865616;29;20578;-75
2021/03/27 03:12:02;;;;;;;3.60;1.50;;;7.10;99.90;;;;;;4846007;29;20195;-77
2021/03/27 03:14:56;;;;;;;4.38;2.08;;;7.10;99.90;;;;;;4869323;29;20639;-76
2021/03/27 03:17:26;;;;;;;2.33;1.67;;;7.10;99.90;;;;;;4850310;29;20203;-76
2021/03/27 03:20:18;;;;;;;2.50;1.30;;;7.10;99.90;;;;;;4880585;29;20262;-75
2021/03/27 03:23:11;;;;;;;9.48;2.00;;;7.10;99.90;;;;;;4844674;29;20244;-75
2021/03/27 03:25:56;;;;;;;4.82;1.88;;;7.10;99.90;;;;;;4869916;29;20275;-77
2021/03/27 03:28:31;;;;;;;2.95;1.88;;;7.10;99.90;;;;;;4879644;29;20218;-78
2021/03/27 03:31:08;;;;;;;7.10;1.75;;;7.10;99.90;;;;;;4864060;29;20601;-76
2021/03/27 03:33:51;;;;;;;3.85;2.17;;;7.10;99.90;;;;;;4864282;29;20629;-80
2021/03/27 03:36:44;;;;;;;3.33;1.98;;;7.10;99.90;;;;;;4878879;29;20207;-75
2021/03/27 03:39:36;;;;;;;3.75;2.28;;;7.10;99.90;;;;;;4848143;29;20262;-82
2021/03/27 03:42:24;;;;;;;3.30;1.92;;;7.10;99.90;;;;;;4842272;29;20317;-78
2021/03/27 03:44:53;;;;;;;3.75;1.30;;;7.10;99.90;;;;;;4868897;29;20354;-77
2021/03/27 03:47:27;;;;;;;6.63;2.70;;;7.00;99.90;;;;;;4853657;29;20199;-76
2021/03/27 03:50:29;;;;;;;4.53;1.73;;;7.00;99.90;;;;;;4854376;29;20229;-81
2021/03/27 03:53:15;;;;;;;2.45;1.17;;;7.00;99.90;;;;;;4865363;29;20199;-79
2021/03/27 03:55:57;;;;;;;4.20;1.50;;;6.90;99.90;;;;;;4874495;29;20238;-76
2021/03/27 03:58:55;;;;;;;3.45;1.50;;;6.90;99.90;;;;;;4877691;29;20715;-77
2021/03/27 04:01:25;;;;;;;6.93;1.60;;;7.00;99.90;;;;;;4874824;29;20251;-80
2021/03/27 04:04:06;;;;;;;4.03;1.25;;;7.00;99.90;;;;;;4881170;29;20697;-77
2021/03/27 04:06:37;;;;;;;5.35;2.00;;;7.00;99.90;;;;;;4860110;29;20207;-75
2021/03/27 04:09:36;;;;;;;4.93;1.75;;;6.90;99.90;;;;;;4874385;29;20297;-75
2021/03/27 04:12:17;;;;;;;4.07;1.55;;;6.80;99.90;;;;;;4871751;29;20191;-78
2021/03/27 04:14:57;;;;;;;5.53;1.42;;;6.80;99.90;;;;;;4879899;29;20293;-79
2021/03/27 04:17:45;;;;;;;5.97;1.88;;;6.80;99.90;;;;;;4862137;29;20190;-76
2021/03/27 04:20:49;;;;;;;2.60;1.67;;;6.70;99.90;;;;;;4845698;29;20297;-78
2021/03/27 04:23:46;;;;;;;8.85;1.73;;;6.70;99.90;;;;;;4860002;29;20630;-80
2021/03/27 04:26:26;;;;;;;3.90;1.70;;;6.70;99.90;;;;;;4861402;29;20282;-80
2021/03/27 04:29:05;;;;;;;4.38;1.63;;;6.60;99.90;;;;;;4875813;29;20266;-79
2021/03/27 04:31:55;;;;;;;5.25;1.30;;;6.60;99.90;;;;;;4874295;29;20202;-80
2021/03/27 04:34:41;;;;;;;7.00;2.05;;;6.70;99.90;;;;;;4844625;29;20559;-79
2021/03/27 04:37:32;;;;;;;6.03;2.33;;;6.70;99.90;;;;;;4853059;29;20237;-80
2021/03/27 04:40:20;;;;;;;6.68;1.80;;;6.60;99.90;;;;;;4844662;29;20675;-78
2021/03/27 04:42:58;;;;;;;3.40;1.50;;;6.60;99.90;;;;;;4847668;29;20206;-79
2021/03/27 04:45:26;;;;;;;5.40;1.90;;;6.60;99.90;;;;;;4872059;29;20214;-76
2021/03/27 04:48:01;;;;;;;11.50;2.03;;;6.60;99.90;;;;;;4848367;29;20280;-76
2021/03/27 04:51:09;;;;;;;4.90;1.80;;;6.60;99.90;;;;;;4848723;29;20190;-78
2021/03/27 04:53:43;;;;;;;7.22;2.30;;;6.60;99.90;;;;;;4866458;29;20314;-77
2021/03/27 04:56:24;;;;;;;7.10;2.58;;;6.60;99.90;;;;;;4867893;29;20314;-78
2021/03/27 04:58:58;;;;;;;3.95;1.83;;;6.60;99.90;;;;;;4844350;29;20282;-78
2021/03/27 05:01:37;;;;;;;7.18;2.25;;;6.70;99.90;;;;;;4855924;29;20221;-78
2021/03/27 05:04:14;;;;;;;5.13;2.15;;;6.70;99.90;;;;;;4847698;29;20225;-79
2021/03/27 05:06:53;;;;;;;5.57;2.15;;;6.70;99.90;;;;;;4866751;29;20247;-75
2021/03/27 05:09:39;;;;;;;5.75;2.83;;;6.70;99.90;;;;;;4861085;29;20234;-81
2021/03/27 05:12:13;;;;;;;5.95;2.00;;;6.80;99.90;;;;;;4868823;29;20598;-77
2021/03/27 05:15:16;;;;;;;3.75;1.95;;;6.70;99.90;;;;;;4852597;29;20297;-76
2021/03/27 05:17:53;;;;;;;9.73;2.08;;;6.80;99.90;;;;;;4858118;29;20195;-78
2021/03/27 05:20:35;;;;;;;4.97;1.80;;;6.80;99.90;;;;;;4847537;29;20208;-80
2021/03/27 05:23:23;;;;;;;7.65;2.80;;;6.80;99.90;;;;;;4869772;29;20249;-80
2021/03/27 05:26:09;;;;;;;9.27;2.53;;;6.80;99.90;;;;;;4867713;29;20230;-77
2021/03/27 05:29:01;;;;;;;7.28;2.72;;;6.70;99.90;;;;;;4878595;29;20218;-82
2021/03/27 05:31:37;;;;;;;5.50;2.30;;;6.70;99.90;;;;;;4862525;29;20262;-78
2021/03/27 05:34:27;;;;;;;10.70;3.13;;;6.70;99.90;;;;;;4863388;29;20253;-77
2021/03/27 05:37:08;;;;;;;6.68;2.70;;;6.70;99.90;;;;;;4857116;29;20205;-79
2021/03/27 05:39:52;;;;;;;9.43;2.60;;;6.60;99.90;;;;;;4870920;29;20242;-78
2021/03/27 05:42:36;;;;;;;6.05;2.65;;;6.60;99.90;;;;;;4880485;29;22103;-80
2021/03/27 05:45:05;;;;;;;6.20;3.50;;;6.70;99.90;;;;;;4864684;29;20271;-82
2021/03/27 05:47:59;;;;;;;8.02;2.45;;;6.70;99.90;;;;;;4867538;29;20191;-79
2021/03/27 05:50:48;;;;;;;12.70;1.90;;;6.80;99.90;;;;;;4882656;29;20211;-80
2021/03/27 05:53:47;;;;;;;4.88;2.10;;;6.80;99.90;;;;;;4867306;29;20227;-81
2021/03/27 05:56:41;;;;;;;6.18;2.30;;;6.90;99.90;;;;;;4865457;29;20238;-77
2021/03/27 05:59:25;;;;;;;11.55;2.95;;;6.90;99.90;;;;;;4861216;29;20231;-78
2021/03/27 06:02:04;;;;;;;7.07;2.30;;;7.00;99.90;;;;;;4878581;29;20214;-81
2021/03/27 06:04:46;;;;;;;10.65;2.65;;;7.10;99.90;;;;;;4865421;29;20218;-78
2021/03/27 06:07:25;;;;;;;6.78;2.70;;;7.10;99.90;;;;;;4865125;29;20184;-77
2021/03/27 06:10:16;;;;;;;9.27;2.50;;;7.20;99.90;;;;;;4851683;29;20211;-79
2021/03/27 06:13:01;;;;;;;7.18;2.78;;;7.20;99.90;;;;;;4861586;29;20194;-78
2021/03/27 06:15:55;;;;;;;8.77;2.45;;;7.20;99.90;;;;;;4849445;29;20249;-77
2021/03/27 06:18:44;;;;;;;8.52;2.75;;;7.20;99.90;;;;;;4849933;29;20249;-81
2021/03/27 06:21:28;;;;;;;4.15;1.95;;;7.10;99.90;;;;;;4867617;29;20198;-86
2021/03/27 06:24:11;;;;;;;3.83;2.25;;;7.00;99.90;;;;;;4846889;29;20284;-87
2021/03/27 06:27:04;;;;;;;5.95;1.95;;;6.80;99.90;;;;;;4870595;29;20187;-82
2021/03/27 06:29:51;;;;;;;6.85;1.60;;;6.60;99.90;;;;;;4862462;29;20223;-85
2021/03/27 06:33:08;;;;;;;3.70;1.35;;;6.50;99.90;;;;;;4866237;29;20199;-82
2021/03/27 06:36:00;;;;;;;2.58;1.00;;;6.30;99.90;;;;;;4866511;29;20709;-84
2021/03/27 06:39:02;;;;;;;2.17;1.00;;;5.90;99.90;;;;;;4865338;29;20222;-83
2021/03/27 06:41:55;;;;;;;5.43;1.08;;;5.60;99.90;;;;;;4870878;29;20210;-87
2021/03/27 06:44:58;;;;;;;2.17;0.82;;;5.40;99.90;;;;;;4870204;29;20227;-86
2021/03/27 06:47:33;;;;;;;0.88;0.73;;;5.30;99.90;;;;;;4862867;29;20654;-87
2021/03/27 06:50:41;;;;;;;2.00;1.00;;;5.20;99.90;;;;;;4847914;29;20234;-85
2021/03/27 06:53:26;;;;;;;1.35;0.80;;;5.10;99.90;;;;;;4868702;29;20234;-83
2021/03/27 06:56:12;;;;;;;1.77;0.80;;;5.10;99.90;;;;;;4866269;29;20225;-86
2021/03/27 06:58:50;;;;;;;0.77;0.68;;;5.00;99.90;;;;;;4851047;29;20219;-80
2021/03/27 07:02:02;;;;;;;1.42;1.23;;;5.10;99.90;;;;;;4865152;29;20218;-84
2021/03/27 07:04:28;;;;;;;1.08;0.77;;;5.10;99.90;;;;;;4876095;29;20278;-83
2021/03/27 07:07:19;;;;;;;0.80;0.60;;;5.10;99.90;;;;;;4865404;29;20251;-85
2021/03/27 07:10:07;;;;;;;1.98;0.57;;;5.10;99.90;;;;;;4861224;29;20226;-85
2021/03/27 07:12:44;;;;;;;0.52;0.38;;;5.10;99.90;;;;;;4847758;29;20238;-83
2021/03/27 07:15:35;;;;;;;1.33;0.68;;;5.10;99.90;;;;;;4864447;29;20312;-84
2021/03/27 07:18:40;;;;;;;1.25;0.50;;;5.10;99.90;;;;;;4862606;29;20277;-80
2021/03/27 07:21:30;;;;;;;2.50;0.60;;;5.30;99.90;;;;;;4855000;29;20210;-84
2021/03/27 07:24:30;;;;;;;0.95;0.60;;;5.40;99.90;;;;;;4852030;29;20219;-81
2021/03/27 07:27:22;;;;;;;1.73;0.80;;;5.70;99.90;;;;;;4864754;29;20195;-81
2021/03/27 07:30:17;;;;;;;1.80;1.23;;;6.00;99.90;;;;;;4877494;29;20618;-80
2021/03/27 07:32:43;;;;;;;1.80;0.70;;;6.20;99.90;;;;;;4851180;29;20297;-81
2021/03/27 07:35:19;;;;;;;3.72;1.10;;;6.20;99.90;;;;;;4877932;29;20294;-79
2021/03/27 07:38:01;;;;;;;1.85;0.80;;;6.30;99.90;;;;;;4873004;29;20205;-78
2021/03/27 07:40:46;;;;;;;2.60;1.10;;;6.30;99.90;;;;;;4847352;29;20732;-79
2021/03/27 07:43:28;;;;;;;2.15;1.25;;;6.30;99.90;;;;;;4862788;29;20253;-78
2021/03/27 07:46:33;;;;;;;4.32;1.88;;;6.30;99.90;;;;;;4850450;29;20219;-80
2021/03/27 07:49:31;;;;;;;3.05;1.80;;;6.50;99.90;;;;;;4862094;29;20233;-78
2021/03/27 07:52:08;;;;;;;2.35;2.15;;;6.70;99.90;;;;;;4872757;29;20198;-77
2021/03/27 07:54:57;;;;;;;3.50;1.33;;;6.90;99.90;;;;;;4863417;29;20250;-77
2021/03/27 07:57:45;;;;;;;3.10;1.90;;;7.10;99.90;;;;;;4847670;29;20233;-75
2021/03/27 08:00:50;;;;;;;2.65;1.42;;;7.40;99.90;;;;;;4845089;29;20251;-78
2021/03/27 08:03:52;;;;;;;3.38;1.58;;;7.80;99.90;;;;;;4845502;29;20227;-79
2021/03/27 08:06:20;;;;;;;3.13;1.65;;;8.10;99.90;;;;;;4862244;29;20219;-77
2021/03/27 08:09:18;;;;;;;3.45;1.92;;;8.40;99.90;;;;;;4864360;29;20944;-77
2021/03/27 08:12:17;;;;;;;8.50;1.92;;;8.70;99.90;;;;;;4854706;29;20657;-77
2021/03/27 08:15:13;;;;;;;3.60;2.40;;;9.00;99.90;;;;;;4831488;29;20219;-77
2021/03/27 08:18:01;;;;;;;6.07;2.13;;;9.20;99.90;;;;;;4825966;29;20222;-74
2021/03/27 08:20:27;;;;;;;8.15;2.10;;;9.30;99.90;;;;;;4852131;29;20252;-75
2021/03/27 08:23:31;;;;;;;6.10;1.63;;;9.30;99.90;;;;;;4860479;29;20309;-74
2021/03/27 08:26:28;;;;;;;7.07;2.38;;;9.30;99.90;;;;;;4861388;29;20206;-78
2021/03/27 08:28:55;;;;;;;5.90;2.08;;;9.40;99.90;;;;;;4869456;29;20668;-75
2021/03/27 08:32:15;;;;;;;10.32;2.50;;;9.30;99.90;;;;;;4838500;29;20206;-75
2021/03/27 08:35:03;;;;;;;6.63;2.65;;;9.40;99.90;;;;;;4845802;29;20229;-75
2021/03/27 08:37:57;;;;;;;4.68;2.00;;;9.40;99.90;;;;;;4854801;29;20191;-75
2021/03/27 08:41:09;;;;;;;4.50;1.85;;;9.40;99.90;;;;;;4853556;29;20293;-75
2021/03/27 08:43:41;;;;;;;6.88;2.65;;;9.40;99.90;;;;;;4852150;29;20290;-74
2021/03/27 08:46:51;;;;;;;8.70;3.40;;;9.50;99.90;;;;;;4869485;29;20704;-77
2021/03/27 08:49:50;;;;;;;7.03;2.33;;;9.50;99.90;;;;;;4842745;29;20218;-75
2021/03/27 08:52:29;;;;;;;7.45;2.20;;;9.50;99.90;;;;;;4864261;29;20180;-78
2021/03/27 08:55:09;;;;;;;3.33;2.10;;;9.50;99.90;;;;;;4870483;29;20589;-78
2021/03/27 08:57:54;;;;;;;6.57;2.50;;;9.50;99.90;;;;;;4867800;29;20182;-76
2021/03/27 09:00:46;;;;;;;7.43;2.25;;;9.50;99.90;;;;;;4868915;29;20221;-74
2021/03/27 09:03:16;;;;;;;7.38;2.30;;;9.70;99.90;;;;;;4874882;29;20281;-74
2021/03/27 09:06:01;;;;;;;9.00;2.80;;;9.80;99.90;;;;;;4859140;29;20683;-76
2021/03/27 09:09:01;;;;;;;8.45;2.10;;;10.00;99.90;;;;;;4855407;29;20251;-77
2021/03/27 09:11:30;;;;;;;9.40;2.58;;;10.10;99.90;;;;;;4841415;29;20195;-75
2021/03/27 09:14:14;;;;;;;3.38;1.70;;;10.00;99.90;;;;;;4869940;29;20271;-74
2021/03/27 09:17:13;;;;;;;9.32;2.65;;;9.90;99.90;;;;;;4874630;29;20187;-75
2021/03/27 09:20:13;;;;;;;6.40;1.90;;;9.70;99.90;;;;;;4875821;29;20242;-74
2021/03/27 09:23:06;;;;;;;7.00;1.92;;;9.80;99.90;;;;;;4866810;29;20558;-75
2021/03/27 09:25:53;;;;;;;7.70;2.28;;;9.90;99.90;;;;;;4863126;29;20219;-74
2021/03/27 09:28:49;;;;;;;5.00;2.10;;;10.10;99.90;;;;;;4862091;29;20215;-73
2021/03/27 09:31:28;;;;;;;5.50;2.30;;;10.40;99.90;;;;;;4841816;29;20264;-74
2021/03/27 09:34:21;;;;;;;10.10;2.70;;;10.50;99.90;;;;;;4867709;29;20227;-74
2021/03/27 09:37:14;;;;;;;6.45;2.58;;;10.40;99.90;;;;;;4863061;29;20240;-74
2021/03/27 09:40:07;;;;;;;9.80;3.97;;;10.30;99.90;;;;;;4871554;29;20226;-75
2021/03/27 09:42:55;;;;;;;9.48;3.08;;;10.00;99.90;;;;;;4858580;29;20219;-76
2021/03/27 09:45:52;;;;;;;5.18;2.75;;;9.80;99.90;;;;;;4866017;29;20233;-73
2021/03/27 09:48:49;;;;;;;6.70;2.83;;;9.60;99.90;;;;;;4845614;29;20249;-74
2021/03/27 09:51:50;;;;;;;7.78;2.20;;;9.40;99.90;;;;;;4863969;29;20600;-76
2021/03/27 09:54:47;;;;;;;5.03;2.13;;;9.20;99.90;;;;;;4869339;29;20293;-78
2021/03/27 09:57:44;;;;;;;7.30;2.92;;;8.90;99.90;;;;;;4864379;29;20265;-78
2021/03/27 10:00:17;;;;;;;10.07;2.90;;;8.70;99.90;;;;;;4854834;29;20986;-81
2021/03/27 10:03:15;;;;;;;6.90;2.15;;;9.00;99.90;;;;;;4872548;29;20206;-81
2021/03/27 10:06:13;;;;;;;6.93;3.08;;;9.50;99.90;;;;;;4853376;29;20578;-79
2021/03/27 10:09:08;;;;;;;4.05;2.22;;;9.90;99.90;;;;;;4870258;29;20235;-78
2021/03/27 10:11:40;;;;;;;6.35;1.95;;;10.30;99.90;;;;;;4828336;29;20207;-79
2021/03/27 10:14:10;;;;;;;5.55;2.00;;;10.30;99.90;;;;;;4863267;29;20223;-75
2021/03/27 10:16:45;;;;;;;4.70;1.90;;;10.20;99.90;;;;;;4851298;29;20603;-77
2021/03/27 10:19:19;;;;;;;4.70;2.03;;;10.10;99.90;;;;;;4855165;29;20582;-76
2021/03/27 10:22:01;;;;;;;4.90;2.05;;;10.20;99.90;;;;;;4857573;29;20634;-74
2021/03/27 10:25:03;;;;;;;5.20;1.80;;;10.10;99.90;;;;;;4855155;29;20219;-75
2021/03/27 10:28:02;;;;;;;4.93;1.42;;;10.20;99.90;;;;;;4814254;29;20537;-74
2021/03/27 10:30:41;;;;;;;4.07;1.58;;;10.30;99.90;;;;;;4852416;29;20175;-75
2021/03/27 10:33:39;;;;;;;5.55;1.38;;;10.30;99.90;;;;;;4877136;29;20222;-75
2021/03/27 10:36:18;;;;;;;3.38;1.55;;;10.30;99.80;;;;;;4866810;29;20218;-74
2021/03/27 10:39:26;;;;;;;3.65;1.48;;;10.10;97.80;;;;;;4845028;29;20261;-74
2021/03/27 10:42:31;;;;;;;2.80;1.48;;;10.00;99.90;;;;;;4866118;29;20645;-75
2021/03/27 10:45:19;;;;;;;3.88;1.38;;;10.00;99.90;;;;;;4876096;29;20221;-74
2021/03/27 10:48:11;;;;;;;2.60;1.67;;;10.00;99.90;;;;;;4882043;29;20221;-75
2021/03/27 10:51:11;;;;;;;5.40;1.92;;;10.10;99.90;;;;;;4852580;29;20190;-73
2021/03/27 10:53:50;;;;;;;6.25;1.85;;;10.10;98.60;;;;;;4846872;29;20302;-74
2021/03/27 10:56:56;;;;;;;6.93;1.40;;;10.10;97.90;;;;;;4879104;29;20214;-74
2021/03/27 10:59:25;;;;;;;5.40;2.58;;;10.20;98.40;;;;;;4864575;29;20214;-73
2021/03/27 11:02:26;;;;;;;4.35;1.60;;;10.30;98.20;;;;;;4849393;29;20211;-73
2021/03/27 11:05:38;;;;;;;5.63;1.73;;;10.30;94.90;;;;;;4876672;29;20251;-75
2021/03/27 11:08:43;;;;;;;3.80;1.80;;;10.10;97.00;;;;;;4843909;29;20276;-75
2021/03/27 11:12:11;;;;;;;5.13;1.90;;;10.30;96.10;;;;;;4877686;29;20187;-73
2021/03/27 11:15:08;;;;;;;7.30;2.88;;;10.40;95.30;;;;;;4838176;29;20858;-75
2021/03/27 11:17:53;;;;;;;6.22;2.00;;;10.40;94.10;;;;;;4868112;29;20207;-75
2021/03/27 11:20:45;;;;;;;3.72;1.88;;;10.50;94.90;;;;;;4842155;29;20211;-73
2021/03/27 11:23:46;;;;;;;4.43;1.85;;;10.50;91.10;;;;;;4844490;29;20227;-74
2021/03/27 11:26:41;;;;;;;6.25;1.70;;;10.60;88.80;;;;;;4854344;29;20221;-74
2021/03/27 11:29:33;;;;;;;3.17;1.65;;;10.60;85.40;;;;;;4845877;29;20249;-74
2021/03/27 11:32:08;;;;;;;2.58;1.70;;;10.70;86.00;;;;;;4870065;29;20195;-74
2021/03/27 11:34:59;;;;;;;4.95;2.10;;;10.60;86.10;;;;;;4862602;29;20300;-74
2021/03/27 11:37:26;;;;;;;7.93;3.13;;;10.40;88.00;;;;;;4855902;29;20287;-74
2021/03/27 11:40:11;;;;;;;2.33;2.13;;;10.00;90.50;;;;;;4876543;29;20214;-73
2021/03/27 11:43:07;;;;;;;4.97;1.30;;;9.80;92.70;;;;;;4838741;29;20693;-74
2021/03/27 11:45:47;;;;;;;4.05;1.65;;;9.40;93.10;;;;;;4862491;29;20262;-74
2021/03/27 11:48:46;;;;;;;3.20;1.33;;;9.30;96.70;;;;;;4858021;29;20693;-75
2021/03/27 11:51:35;;;;;;;3.30;1.20;;;9.50;95.70;;;;;;4847385;29;20298;-74
2021/03/27 11:54:49;;;;;;;2.67;1.33;;;9.70;94.30;;;;;;5078984;27;20887;-75
2021/03/27 11:57:35;;;;;;;5.30;1.90;;;9.90;95.10;;;;;;5067927;28;20237;-74
2021/03/27 12:03:20;;;;;;;4.10;2.05;;;8.90;99.90;;;;;;5047307;28;20217;-85
2021/03/27 12:05:55;;;;;;;3.60;1.60;;;8.60;99.90;;;;;;5042806;28;20204;-86
2021/03/27 12:09:09;;;;;;;1.55;1.15;;;8.40;99.90;;;;;;5045411;28;20261;-86
2021/03/27 12:12:13;;;;;;;6.55;2.45;;;8.40;99.90;;;;;;5034969;28;20192;-82
2021/03/27 12:14:56;;;;;;;6.28;2.10;;;8.50;99.90;;;;;;5067464;27;20246;-82
2021/03/27 12:17:41;;;;;;;5.85;2.00;;;8.60;99.90;;;;;;5057676;28;20176;-83
2021/03/27 12:20:33;;;;;;;6.40;2.08;;;8.70;99.90;;;;;;5031324;28;20216;-83
2021/03/27 12:23:25;;;;;;;4.50;1.40;;;8.50;99.90;;;;;;5029670;28;20199;-80
2021/03/27 12:26:11;;;;;;;2.15;1.38;;;8.30;99.90;;;;;;5055123;28;20209;-83
2021/03/27 12:28:56;;;;;;;5.72;1.83;;;7.90;99.90;;;;;;5058637;28;20300;-82
2021/03/27 12:31:48;;;;;;;2.38;0.88;;;7.80;99.90;;;;;;5051051;28;20196;-83
2021/03/27 12:34:44;;;;;;;1.77;1.00;;;7.80;99.90;;;;;;5041661;28;20220;-84
2021/03/27 12:37:29;;;;;;;3.05;1.40;;;7.70;99.90;;;;;;5042535;28;20224;-83
2021/03/27 12:40:25;;;;;;;3.17;1.98;;;7.70;99.90;;;;;;5040452;28;20209;-83
2021/03/27 12:43:14;;;;;;;2.13;1.92;;;7.80;99.90;;;;;;5032445;28;20185;-82
2021/03/27 12:45:45;;;;;;;2.25;1.83;;;7.90;99.90;;;;;;5048138;28;20205;-83
2021/03/27 12:48:34;;;;;;;2.05;1.85;;;8.20;99.90;;;;;;5045552;28;20274;-80
2021/03/27 12:51:31;;;;;;;4.22;2.15;;;8.50;99.90;;;;;;5040521;28;20199;-85
2021/03/27 12:54:24;;;;;;;4.53;2.15;;;8.80;99.90;;;;;;5045299;28;20231;-79
2021/03/27 12:57:19;;;;;;;3.08;1.85;;;9.00;99.90;;;;;;5046786;28;20283;-79
2021/03/27 13:00:26;;;;;;;3.85;2.55;;;9.20;99.90;;;;;;5033445;28;20213;-77
2021/03/27 13:03:29;;;;;;;2.70;2.00;;;9.40;99.90;;;;;;5042011;28;20260;-80
2021/03/27 13:06:32;;;;;;;4.05;3.08;;;9.50;99.90;;;;;;5029869;28;20259;-77
2021/03/27 13:09:11;;;;;;;3.70;2.08;;;9.70;99.90;;;;;;5018715;28;20229;-77
2021/03/27 13:11:57;;;;;;;4.85;2.30;;;9.80;98.60;;;;;;5033012;28;20567;-76
2021/03/27 13:14:53;;;;;;;4.03;1.98;;;9.70;95.60;;;;;;5025615;28;20224;-77
2021/03/27 13:17:26;;;;;;;5.38;2.50;;;9.50;94.40;;;;;;5024813;28;20239;-75
2021/03/27 13:20:23;;;;;;;3.60;2.05;;;9.40;91.80;;;;;;5010518;28;20210;-76
2021/03/27 13:23:13;;;;;;;2.80;1.65;;;9.20;91.70;;;;;;5001144;28;20197;-76
2021/03/27 13:25:52;;;;;;;3.13;1.52;;;9.10;90.50;;;;;;5020004;28;20260;-75
2021/03/27 13:28:29;;;;;;;3.00;2.22;;;9.20;90.10;;;;;;5033415;28;20248;-75
2021/03/27 13:31:09;;;;;;;3.08;2.05;;;9.40;90.50;;;;;;5032626;28;20197;-74
2021/03/27 13:33:52;;;;;;;7.13;2.17;;;9.60;87.70;;;;;;5031733;28;20213;-75
2021/03/27 13:36:28;;;;;;;3.85;1.67;;;9.80;82.90;;;;;;5015134;28;20217;-77
2021/03/27 13:39:55;;;;;;;3.00;1.75;;;10.00;77.80;;;;;;5028512;28;20267;-76
2021/03/27 13:42:41;;;;;;;2.85;1.30;;;10.20;80.40;;;;;;5039950;28;20192;-76
2021/03/27 13:45:20;;;;;;;7.93;1.60;;;10.40;75.40;;;;;;5046456;28;20653;-75
2021/03/27 13:47:52;;;;;;;4.63;1.92;;;10.50;74.10;;;;;;5032962;28;20189;-75
2021/03/27 13:50:41;;;;;;;3.78;1.60;;;10.60;68.60;;;;;;5042911;28;20190;-74
2021/03/27 13:53:32;;;;;;;6.38;1.80;;;10.70;71.50;;;;;;5021723;28;20228;-75
2021/03/27 13:56:50;;;;;;;6.30;2.25;;;10.80;66.30;;;;;;5028229;28;20212;-75
2021/03/27 13:59:41;;;;;;;5.15;2.00;;;10.80;66.40;;;;;;5003885;28;20267;-75
2021/03/27 14:02:30;;;;;;;3.63;1.45;;;10.90;67.30;;;;;;5003545;28;20694;-76
2021/03/27 14:05:33;;;;;;;5.80;2.60;;;11.00;60.30;;;;;;5011130;28;20300;-76
2021/03/27 14:08:31;;;;;;;5.28;1.50;;;11.10;65.70;;;;;;5021518;28;20217;-75
2021/03/27 14:11:03;;;;;;;3.05;1.00;;;11.10;59.60;;;;;;5032054;28;20233;-74
2021/03/27 14:13:42;;;;;;;1.80;1.30;;;11.00;58.20;;;;;;5026516;28;20301;-75
2021/03/27 14:16:29;;;;;;;2.28;1.08;;;11.00;60.50;;;;;;5030496;28;20211;-75
2021/03/27 14:19:17;;;;;;;2.60;1.10;;;11.00;57.70;;;;;;5031237;28;20217;-75
2021/03/27 14:22:12;;;;;;;2.35;1.23;;;11.10;58.80;;;;;;5022908;28;20272;-76
2021/03/27 14:25:16;;;;;;;4.55;0.75;;;11.20;59.70;;;;;;5027268;28;20334;-75
2021/03/27 14:28:27;;;;;;;2.35;1.20;;;11.20;57.20;;;;;;5022834;28;20212;-76
2021/03/27 14:31:14;;;;;;;3.50;1.33;;;11.30;55.90;;;;;;5025024;28;20192;-76
2021/03/27 14:34:22;;;;;;;3.85;1.20;;;11.30;55.80;;;;;;5028460;28;20220;-75
2021/03/27 14:37:33;;;;;;;3.75;1.35;;;11.20;57.20;;;;;;5028058;28;20197;-76
2021/03/27 14:40:30;;;;;;;5.45;1.70;;;11.20;55.70;;;;;;5015125;28;20219;-74
2021/03/27 14:43:17;;;;;;;1.23;1.10;;;11.20;58.50;;;;;;5021417;28;20577;-76
2021/03/27 14:46:29;;;;;;;1.63;1.05;;;11.20;51.30;;;;;;5021771;28;20297;-74